Time;durP1;ratioP1;P1;durP2;ratioP2;P2;SDS_P1;SDS_P2;PMS_P1;PMS_P2;Temp;Humidity;BMP_temperature;BMP_pressure;BME280_temperature;BME280_humidity;BME280_pressure;Samples;Min_cycle;Max_cycle;Signal;HPM_P1;HPM_P2
2021/09/05 00:00:21;;;;;;;14.13;8.63;;;14.50;99.90;;;;;;5048947;28;20816;-87
2021/09/05 00:02:48;;;;;;;17.43;8.73;;;14.50;99.90;;;;;;5048460;28;20257;-86
2021/09/05 00:05:16;;;;;;;14.20;8.20;;;14.50;99.90;;;;;;5048587;28;20209;-84
2021/09/05 00:07:43;;;;;;;13.20;7.93;;;14.50;99.90;;;;;;5049168;28;20206;-85
2021/09/05 00:10:11;;;;;;;11.97;8.03;;;14.50;99.90;;;;;;5052190;28;20609;-85
2021/09/05 00:12:38;;;;;;;13.03;8.10;;;14.50;99.90;;;;;;5070912;28;20232;-88
2021/09/05 00:15:06;;;;;;;13.00;7.60;;;14.40;99.90;;;;;;5072347;28;20224;-85
2021/09/05 00:17:33;;;;;;;12.63;8.53;;;14.40;99.90;;;;;;5064410;28;20206;-84
2021/09/05 00:20:00;;;;;;;14.43;8.80;;;14.40;99.90;;;;;;5053046;28;20209;-85
2021/09/05 00:22:28;;;;;;;14.77;8.23;;;14.30;99.90;;;;;;5052253;28;20229;-84
2021/09/05 00:24:55;;;;;;;14.17;9.13;;;14.30;99.90;;;;;;5041629;28;20218;-87
2021/09/05 00:27:22;;;;;;;11.23;7.90;;;14.30;99.90;;;;;;5032814;28;20202;-85
2021/09/05 00:29:48;;;;;;;13.50;8.53;;;14.20;99.90;;;;;;5031940;28;20199;-86
2021/09/05 00:32:15;;;;;;;12.43;7.90;;;14.20;99.90;;;;;;5041160;28;20220;-84
2021/09/05 00:34:42;;;;;;;13.57;8.70;;;14.20;99.90;;;;;;5052440;28;20206;-86
2021/09/05 00:37:09;;;;;;;13.27;8.50;;;14.20;99.90;;;;;;5052711;28;20206;-84
2021/09/05 00:39:37;;;;;;;12.27;8.27;;;14.10;99.90;;;;;;5052830;28;20232;-87
2021/09/05 00:42:04;;;;;;;10.63;7.40;;;14.10;99.90;;;;;;5052071;28;20218;-88
2021/09/05 00:44:31;;;;;;;13.03;8.10;;;14.10;99.90;;;;;;5052211;28;20237;-89
2021/09/05 00:46:58;;;;;;;11.40;7.70;;;14.00;99.90;;;;;;5052470;28;20210;-88
2021/09/05 00:49:25;;;;;;;13.40;7.50;;;14.00;99.90;;;;;;5052373;28;20201;-88
2021/09/05 00:51:53;;;;;;;12.80;7.97;;;14.00;99.90;;;;;;5051188;28;20221;-90
2021/09/05 00:54:21;;;;;;;9.33;7.37;;;13.90;99.90;;;;;;5051118;28;20213;-84
2021/09/05 00:56:49;;;;;;;13.90;8.40;;;13.90;99.90;;;;;;5055847;28;20201;-89
2021/09/05 00:59:19;;;;;;;15.17;9.53;;;13.90;99.90;;;;;;5071434;28;20209;-88
2021/09/05 01:01:46;;;;;;;14.90;8.83;;;13.90;99.90;;;;;;5071642;28;20205;-86
2021/09/05 01:04:13;;;;;;;14.43;9.10;;;13.80;99.90;;;;;;5032765;28;20222;-89
2021/09/05 01:06:41;;;;;;;17.00;8.87;;;13.80;99.90;;;;;;5030729;28;20205;-84
2021/09/05 01:09:08;;;;;;;13.03;9.30;;;13.80;99.90;;;;;;5044587;28;20217;-86
2021/09/05 01:11:36;;;;;;;13.37;9.80;;;13.80;99.90;;;;;;5051146;28;20202;-86
2021/09/05 01:14:06;;;;;;;13.00;8.77;;;13.80;99.90;;;;;;5051690;28;20222;-84
2021/09/05 01:16:35;;;;;;;13.97;9.87;;;13.70;99.90;;;;;;5051553;28;20225;-86
2021/09/05 01:19:06;;;;;;;19.43;10.53;;;13.70;99.90;;;;;;5051311;28;20205;-85
2021/09/05 01:21:33;;;;;;;14.53;9.53;;;13.70;99.90;;;;;;5051173;28;20202;-85
2021/09/05 01:24:00;;;;;;;16.77;10.83;;;13.70;99.90;;;;;;5051354;28;20978;-84
2021/09/05 01:26:29;;;;;;;13.80;9.83;;;13.70;99.90;;;;;;5050596;28;20221;-87
2021/09/05 01:28:58;;;;;;;16.40;9.67;;;13.70;99.90;;;;;;5051127;28;20202;-81
2021/09/05 01:31:26;;;;;;;15.43;10.23;;;13.60;99.90;;;;;;5048022;28;20623;-84
2021/09/05 01:33:53;;;;;;;13.70;9.10;;;13.60;99.90;;;;;;5030412;28;20230;-85
2021/09/05 01:36:20;;;;;;;14.53;9.73;;;13.60;99.90;;;;;;5037222;28;20198;-85
2021/09/05 01:38:47;;;;;;;17.07;9.83;;;13.60;99.90;;;;;;5041145;28;20817;-83
2021/09/05 01:41:14;;;;;;;15.03;10.50;;;13.60;99.90;;;;;;5046781;28;20206;-88
2021/09/05 01:43:41;;;;;;;17.43;10.20;;;13.60;99.90;;;;;;5049394;28;20245;-87
2021/09/05 01:46:09;;;;;;;15.27;10.23;;;13.60;99.90;;;;;;5052035;28;20197;-87
2021/09/05 01:48:36;;;;;;;16.73;9.50;;;13.60;99.90;;;;;;5050535;28;20213;-88
2021/09/05 01:51:03;;;;;;;13.23;9.43;;;13.50;99.90;;;;;;5051626;28;20202;-88
2021/09/05 01:53:30;;;;;;;17.83;9.67;;;13.50;99.90;;;;;;5051099;28;20218;-88
2021/09/05 01:55:56;;;;;;;13.77;9.93;;;13.50;99.90;;;;;;5032643;28;20221;-89
2021/09/05 01:58:23;;;;;;;14.73;10.13;;;13.50;99.90;;;;;;5032229;28;20206;-88
2021/09/05 02:00:50;;;;;;;13.70;9.33;;;13.40;99.90;;;;;;5032378;28;20606;-84
2021/09/05 02:03:19;;;;;;;16.07;10.10;;;13.50;99.90;;;;;;5050958;28;20230;-90
2021/09/05 02:05:46;;;;;;;13.47;8.73;;;13.40;99.90;;;;;;5050680;28;20212;-89
2021/09/05 02:08:12;;;;;;;15.63;10.07;;;13.40;99.90;;;;;;5050611;28;20209;-87
2021/09/05 02:10:40;;;;;;;13.87;8.53;;;13.40;99.90;;;;;;5050288;28;20225;-88
2021/09/05 02:13:07;;;;;;;11.40;9.03;;;13.40;99.90;;;;;;5050969;28;20198;-88
2021/09/05 02:15:34;;;;;;;13.50;9.23;;;13.30;99.90;;;;;;5051041;28;20205;-83
2021/09/05 02:18:01;;;;;;;13.23;8.60;;;13.30;99.90;;;;;;5050855;28;20201;-86
2021/09/05 02:20:29;;;;;;;12.27;8.43;;;13.30;99.90;;;;;;5050660;28;20210;-85
2021/09/05 02:22:56;;;;;;;14.90;9.13;;;13.30;99.90;;;;;;5049715;28;20267;-89
2021/09/05 02:25:23;;;;;;;14.13;9.73;;;13.30;99.90;;;;;;5050915;28;20220;-88
2021/09/05 02:27:50;;;;;;;15.20;9.13;;;13.30;99.90;;;;;;5050681;28;20228;-85
2021/09/05 02:30:17;;;;;;;15.57;10.00;;;13.20;99.90;;;;;;5050722;28;20246;-89
2021/09/05 02:32:44;;;;;;;15.03;10.37;;;13.20;99.90;;;;;;5050898;28;20541;-87
2021/09/05 02:35:12;;;;;;;16.70;10.67;;;13.20;99.90;;;;;;5050316;28;20946;-85
2021/09/05 02:37:40;;;;;;;14.53;9.73;;;13.20;99.90;;;;;;5049670;28;20841;-87
2021/09/05 02:40:08;;;;;;;15.93;11.10;;;13.20;99.90;;;;;;5050310;28;20225;-88
2021/09/05 02:42:36;;;;;;;18.17;11.50;;;13.20;99.90;;;;;;5049712;28;20289;-87
2021/09/05 02:45:04;;;;;;;16.30;9.57;;;13.20;99.90;;;;;;5049903;28;20245;-86
2021/09/05 02:47:31;;;;;;;15.80;11.20;;;13.20;99.90;;;;;;5050316;28;20204;-84
2021/09/05 02:49:58;;;;;;;18.27;11.40;;;13.20;99.90;;;;;;5049674;28;20209;-83
2021/09/05 02:52:27;;;;;;;16.80;10.37;;;13.20;99.90;;;;;;5049311;28;20529;-85
2021/09/05 02:54:55;;;;;;;12.23;9.93;;;13.20;99.90;;;;;;5050140;28;20198;-83
2021/09/05 02:57:22;;;;;;;13.23;9.53;;;13.20;99.90;;;;;;5049938;28;20278;-87
2021/09/05 02:59:49;;;;;;;16.37;11.33;;;13.10;99.90;;;;;;5049642;28;20229;-86
2021/09/05 03:02:16;;;;;;;17.77;11.57;;;13.10;99.90;;;;;;5050296;28;20202;-88
2021/09/05 03:04:42;;;;;;;16.23;10.13;;;13.10;99.90;;;;;;5049587;28;20621;-87
2021/09/05 03:07:10;;;;;;;17.70;11.27;;;13.10;99.90;;;;;;5050218;28;20217;-83
2021/09/05 03:09:37;;;;;;;18.00;11.03;;;13.10;99.90;;;;;;5050204;28;20935;-83
2021/09/05 03:12:07;;;;;;;16.07;9.83;;;13.10;99.90;;;;;;5049409;28;20244;-83
2021/09/05 03:14:34;;;;;;;17.13;9.80;;;13.10;99.90;;;;;;5049851;28;20663;-83
2021/09/05 03:17:00;;;;;;;14.93;10.27;;;13.00;99.90;;;;;;5049476;28;20210;-83
2021/09/05 03:19:27;;;;;;;14.27;9.37;;;13.00;99.90;;;;;;5049777;28;20205;-89
2021/09/05 03:21:54;;;;;;;12.73;9.37;;;13.00;99.90;;;;;;5048506;28;20497;-86
2021/09/05 03:24:21;;;;;;;13.10;9.70;;;13.00;99.90;;;;;;5048827;28;20217;-91
2021/09/05 03:26:48;;;;;;;15.70;10.77;;;13.00;99.90;;;;;;5048036;28;20560;-85
2021/09/05 03:29:16;;;;;;;20.03;12.27;;;12.90;99.90;;;;;;5049474;28;20202;-83
2021/09/05 03:31:43;;;;;;;17.30;12.57;;;13.00;99.90;;;;;;5048864;28;20205;-82
2021/09/05 03:34:10;;;;;;;20.87;12.40;;;13.00;99.90;;;;;;5049529;28;20213;-90
2021/09/05 03:36:37;;;;;;;17.53;11.13;;;13.00;99.90;;;;;;5049400;28;20201;-85
2021/09/05 03:39:04;;;;;;;20.13;12.77;;;13.00;99.90;;;;;;5048459;28;20213;-91
2021/09/05 03:41:31;;;;;;;18.37;12.13;;;13.00;99.90;;;;;;5049099;28;20252;-83
2021/09/05 03:43:58;;;;;;;13.63;10.07;;;13.00;99.90;;;;;;5050891;28;20242;-83
2021/09/05 03:46:26;;;;;;;18.07;12.03;;;12.90;99.90;;;;;;5053073;28;20197;-83
2021/09/05 03:48:53;;;;;;;16.50;11.17;;;12.90;99.90;;;;;;5052243;28;20877;-84
2021/09/05 03:51:20;;;;;;;16.13;10.90;;;12.90;99.90;;;;;;5052659;28;20206;-84
2021/09/05 03:53:47;;;;;;;16.23;10.17;;;12.90;99.90;;;;;;5052643;28;20194;-85
2021/09/05 03:56:14;;;;;;;14.67;10.03;;;12.90;99.90;;;;;;5053696;28;20213;-89
2021/09/05 03:58:40;;;;;;;15.00;10.47;;;12.80;99.90;;;;;;5053992;28;20501;-86
2021/09/05 04:01:07;;;;;;;16.97;11.13;;;12.80;99.90;;;;;;5053333;28;20390;-85
2021/09/05 04:03:35;;;;;;;12.83;9.83;;;12.80;99.90;;;;;;5054736;28;20524;-84
2021/09/05 04:06:03;;;;;;;14.57;10.20;;;12.70;99.90;;;;;;5060477;28;20213;-86
2021/09/05 04:08:32;;;;;;;12.57;9.33;;;12.70;99.90;;;;;;5073371;28;20225;-85
2021/09/05 04:10:59;;;;;;;13.90;9.40;;;12.60;99.90;;;;;;5060189;28;20599;-88
2021/09/05 04:13:25;;;;;;;13.67;10.07;;;12.60;99.90;;;;;;5055993;28;20206;-87
2021/09/05 04:15:52;;;;;;;15.33;10.30;;;12.60;99.90;;;;;;5055912;28;20205;-83
2021/09/05 04:18:19;;;;;;;12.37;8.20;;;12.60;99.90;;;;;;5055936;28;20204;-87
2021/09/05 04:20:47;;;;;;;13.97;9.60;;;12.60;99.90;;;;;;5055162;28;20201;-89
2021/09/05 04:23:14;;;;;;;13.67;9.93;;;12.60;99.90;;;;;;5066880;28;20194;-87
2021/09/05 04:25:41;;;;;;;10.37;8.30;;;12.50;99.90;;;;;;5071835;28;20209;-86
2021/09/05 04:28:08;;;;;;;12.80;8.93;;;12.50;99.90;;;;;;5068139;28;20210;-84
2021/09/05 04:30:35;;;;;;;11.40;9.07;;;12.50;99.90;;;;;;5068136;28;20232;-83
2021/09/05 04:33:01;;;;;;;13.93;9.60;;;12.50;99.90;;;;;;5063850;28;20194;-85
2021/09/05 04:35:28;;;;;;;13.00;9.23;;;12.50;99.90;;;;;;5062516;28;20197;-82
2021/09/05 04:37:57;;;;;;;13.90;9.23;;;12.40;99.90;;;;;;5053421;28;20205;-88
2021/09/05 04:40:24;;;;;;;13.80;9.93;;;12.40;99.90;;;;;;5052040;28;20198;-83
2021/09/05 04:42:50;;;;;;;13.90;9.47;;;12.40;99.90;;;;;;5051011;28;20209;-88
2021/09/05 04:45:17;;;;;;;12.03;9.20;;;12.40;99.90;;;;;;5051339;28;20249;-85
2021/09/05 04:47:44;;;;;;;10.87;8.80;;;12.40;99.90;;;;;;5051215;28;20205;-84
2021/09/05 04:50:12;;;;;;;13.67;9.70;;;12.40;99.90;;;;;;5051609;28;20289;-83
2021/09/05 04:52:38;;;;;;;11.40;8.63;;;12.40;99.90;;;;;;5051543;28;20241;-86
2021/09/05 04:55:07;;;;;;;12.97;9.43;;;12.40;99.90;;;;;;5051840;28;20194;-84
2021/09/05 04:57:34;;;;;;;11.30;8.70;;;12.30;99.90;;;;;;5051127;28;20217;-88
2021/09/05 05:00:01;;;;;;;13.00;9.20;;;12.30;99.90;;;;;;5038717;28;20621;-86
2021/09/05 05:02:27;;;;;;;13.70;9.53;;;12.30;99.90;;;;;;5032169;28;20222;-89
2021/09/05 05:04:54;;;;;;;15.27;9.37;;;12.30;99.90;;;;;;5035598;28;20928;-83
2021/09/05 05:07:21;;;;;;;13.33;9.70;;;12.30;99.90;;;;;;5051596;28;20210;-85
2021/09/05 05:09:50;;;;;;;13.63;9.57;;;12.30;99.90;;;;;;5050785;28;20190;-84
2021/09/05 05:12:18;;;;;;;10.90;8.47;;;12.20;99.90;;;;;;5051020;28;20206;-84
2021/09/05 05:14:45;;;;;;;13.43;9.37;;;12.30;99.90;;;;;;5050107;28;20217;-86
2021/09/05 05:17:12;;;;;;;18.80;12.00;;;12.20;99.90;;;;;;5050674;28;20194;-87
2021/09/05 05:19:39;;;;;;;15.47;10.77;;;12.20;99.90;;;;;;5050918;28;20206;-84
2021/09/05 05:22:06;;;;;;;14.87;9.87;;;12.20;99.90;;;;;;5050375;28;20202;-87
2021/09/05 05:24:33;;;;;;;14.37;10.33;;;12.20;99.90;;;;;;5050762;28;20222;-83
2021/09/05 05:27:00;;;;;;;13.67;10.07;;;12.20;99.90;;;;;;5064792;28;20205;-81
2021/09/05 05:29:28;;;;;;;14.50;10.23;;;12.20;99.90;;;;;;5064167;28;20205;-83
2021/09/05 05:31:54;;;;;;;19.50;12.20;;;12.20;99.90;;;;;;5050144;28;20217;-86
2021/09/05 05:34:21;;;;;;;14.97;11.67;;;12.20;99.90;;;;;;5050486;28;20597;-86
2021/09/05 05:36:48;;;;;;;17.33;11.40;;;12.20;99.90;;;;;;5041248;28;20213;-88
2021/09/05 05:39:15;;;;;;;15.93;11.23;;;12.20;99.90;;;;;;5049966;28;20202;-85
2021/09/05 05:41:42;;;;;;;20.67;13.27;;;12.30;99.90;;;;;;5049698;28;20505;-83
2021/09/05 05:44:08;;;;;;;19.43;12.33;;;12.30;99.90;;;;;;5049862;28;20792;-82
2021/09/05 05:46:37;;;;;;;17.17;11.60;;;12.30;99.90;;;;;;5049318;28;20205;-81
2021/09/05 05:49:03;;;;;;;17.47;11.97;;;12.30;99.90;;;;;;5030411;28;20404;-84
2021/09/05 05:51:30;;;;;;;18.73;11.87;;;12.40;99.90;;;;;;5037825;28;20216;-84
2021/09/05 05:53:57;;;;;;;22.80;14.23;;;12.40;99.90;;;;;;5048889;28;20314;-89
2021/09/05 05:56:24;;;;;;;18.93;12.60;;;12.50;99.90;;;;;;5049406;28;20197;-83
2021/09/05 05:58:50;;;;;;;19.30;13.00;;;12.50;99.90;;;;;;5049506;28;20214;-85
2021/09/05 06:01:17;;;;;;;20.07;13.57;;;12.60;99.90;;;;;;5049230;28;20487;-83
2021/09/05 06:03:45;;;;;;;18.57;12.67;;;12.60;99.90;;;;;;5048900;28;20276;-83
2021/09/05 06:06:12;;;;;;;18.60;12.33;;;12.60;99.90;;;;;;5048918;28;20268;-87
2021/09/05 06:08:39;;;;;;;18.17;13.13;;;12.70;99.90;;;;;;5047872;28;20198;-85
2021/09/05 06:11:05;;;;;;;17.50;12.90;;;12.70;99.90;;;;;;5047094;28;20205;-86
2021/09/05 06:13:32;;;;;;;18.10;12.23;;;12.80;99.90;;;;;;5038748;28;20590;-83
2021/09/05 06:15:59;;;;;;;23.00;14.37;;;12.80;99.90;;;;;;5027210;28;20199;-84
2021/09/05 06:18:26;;;;;;;25.87;15.63;;;12.90;99.90;;;;;;5028411;28;20206;-83
2021/09/05 06:20:54;;;;;;;21.27;13.63;;;12.90;99.90;;;;;;5031400;28;20205;-84
2021/09/05 06:23:21;;;;;;;21.10;13.63;;;13.00;99.90;;;;;;5045528;28;20215;-87
2021/09/05 06:25:48;;;;;;;22.10;13.67;;;13.00;99.90;;;;;;5027075;28;20242;-86
2021/09/05 06:28:15;;;;;;;21.10;13.90;;;13.10;99.90;;;;;;5030667;28;20318;-83
2021/09/05 06:30:41;;;;;;;25.53;15.73;;;13.10;99.90;;;;;;5045622;28;20210;-84
2021/09/05 06:33:08;;;;;;;26.40;16.40;;;13.20;99.90;;;;;;5047874;28;20199;-83
2021/09/05 06:35:35;;;;;;;22.60;14.57;;;13.20;99.90;;;;;;5047509;28;20198;-83
2021/09/05 06:38:03;;;;;;;27.47;15.27;;;13.20;99.90;;;;;;5048247;28;20209;-88
2021/09/05 06:40:30;;;;;;;24.50;15.00;;;13.30;99.90;;;;;;5048950;28;20202;-85
2021/09/05 06:42:57;;;;;;;21.77;15.10;;;13.40;99.90;;;;;;5048745;28;20205;-84
2021/09/05 06:45:24;;;;;;;23.83;15.33;;;13.40;99.90;;;;;;5048906;28;20643;-87
2021/09/05 06:47:51;;;;;;;26.00;15.73;;;13.50;99.90;;;;;;5049619;28;20209;-87
2021/09/05 06:50:18;;;;;;;21.87;14.77;;;13.50;99.90;;;;;;5049813;28;20201;-82
2021/09/05 06:52:44;;;;;;;27.80;15.47;;;13.60;99.90;;;;;;5049072;28;20222;-85
2021/09/05 06:55:13;;;;;;;24.27;15.83;;;13.70;99.90;;;;;;5049482;28;20202;-88
2021/09/05 06:57:39;;;;;;;27.90;15.87;;;13.80;99.90;;;;;;5048800;28;20218;-87
2021/09/05 07:00:08;;;;;;;27.77;16.73;;;13.80;99.90;;;;;;5049756;28;20208;-84
2021/09/05 07:02:35;;;;;;;29.83;15.60;;;13.90;99.90;;;;;;5049348;28;20194;-85
2021/09/05 07:05:01;;;;;;;28.07;16.13;;;14.00;99.90;;;;;;5049252;28;20218;-84
2021/09/05 07:07:28;;;;;;;23.30;16.23;;;14.20;99.90;;;;;;5049377;28;20245;-83
2021/09/05 07:10:31;;;;;;;25.97;17.07;;;14.20;99.90;;;;;;5045319;28;20205;-87
2021/09/05 07:12:57;;;;;;;30.47;18.00;;;14.40;99.90;;;;;;5028709;28;20229;-83
2021/09/05 07:15:24;;;;;;;30.40;17.97;;;14.50;99.90;;;;;;5041267;28;20210;-85
2021/09/05 07:17:51;;;;;;;33.63;17.37;;;14.60;99.90;;;;;;5050159;28;20715;-83
2021/09/05 07:20:18;;;;;;;28.20;18.03;;;14.60;99.90;;;;;;5053960;28;20792;-85
2021/09/05 07:22:45;;;;;;;29.20;17.93;;;14.70;99.90;;;;;;5052823;28;20201;-85
2021/09/05 07:25:12;;;;;;;26.60;17.13;;;14.80;99.90;;;;;;5034891;28;20234;-89
2021/09/05 07:27:41;;;;;;;29.67;18.03;;;14.90;99.90;;;;;;5034564;28;20198;-85
2021/09/05 07:30:09;;;;;;;28.30;18.20;;;15.00;99.90;;;;;;5034617;28;20214;-83
2021/09/05 07:32:36;;;;;;;27.83;17.33;;;15.10;99.90;;;;;;5041564;28;20209;-88
2021/09/05 07:35:03;;;;;;;31.83;19.27;;;15.20;99.90;;;;;;5054253;28;20190;-88
2021/09/05 07:37:29;;;;;;;28.43;17.17;;;15.30;99.90;;;;;;5053998;28;20205;-87
2021/09/05 07:39:56;;;;;;;28.23;17.53;;;15.40;99.90;;;;;;5054060;28;20194;-90
2021/09/05 07:42:23;;;;;;;29.80;18.60;;;15.50;99.90;;;;;;5054873;28;20202;-87
2021/09/05 07:44:51;;;;;;;25.70;17.10;;;15.50;99.90;;;;;;5054527;28;20249;-86
2021/09/05 07:47:18;;;;;;;27.83;17.77;;;15.60;99.90;;;;;;5054274;28;20209;-87
2021/09/05 07:49:45;;;;;;;26.43;17.77;;;15.60;99.90;;;;;;5053506;28;20210;-86
2021/09/05 07:52:12;;;;;;;29.43;17.90;;;15.70;99.90;;;;;;5053631;28;20234;-84
2021/09/05 07:54:38;;;;;;;25.30;17.63;;;15.80;99.90;;;;;;5053261;28;20194;-87
2021/09/05 07:57:05;;;;;;;28.53;17.23;;;15.90;99.90;;;;;;5054111;28;20190;-87
2021/09/05 07:59:32;;;;;;;25.23;16.73;;;16.00;99.90;;;;;;5053479;28;20198;-87
2021/09/05 08:02:00;;;;;;;25.43;16.87;;;16.10;99.90;;;;;;5053881;28;20587;-87
2021/09/05 08:04:27;;;;;;;23.43;15.23;;;16.30;99.90;;;;;;5053775;28;20598;-88
2021/09/05 08:06:54;;;;;;;23.10;14.83;;;16.50;99.90;;;;;;5052746;28;20586;-84
2021/09/05 08:09:21;;;;;;;22.52;14.23;;;16.60;99.90;;;;;;5053507;28;20567;-82
2021/09/05 08:11:48;;;;;;;23.20;14.18;;;16.80;99.90;;;;;;5040529;28;20217;-87
2021/09/05 08:14:14;;;;;;;18.42;13.23;;;17.00;99.90;;;;;;5033284;28;20268;-83
2021/09/05 08:16:41;;;;;;;18.90;12.65;;;17.20;99.90;;;;;;5051263;28;20621;-86
2021/09/05 08:19:09;;;;;;;18.05;12.73;;;17.50;99.90;;;;;;5052999;28;20206;-86
2021/09/05 08:21:36;;;;;;;17.02;12.10;;;17.70;99.90;;;;;;5052859;28;20217;-84
2021/09/05 08:24:05;;;;;;;20.42;12.93;;;18.00;99.90;;;;;;5033543;28;20240;-85
2021/09/05 08:26:32;;;;;;;21.13;11.73;;;18.30;99.90;;;;;;5033350;28;20249;-87
2021/09/05 08:28:59;;;;;;;17.65;12.70;;;18.50;99.90;;;;;;5032309;28;20199;-87
2021/09/05 08:31:25;;;;;;;18.42;11.85;;;18.80;99.90;;;;;;5050590;28;20222;-85
2021/09/05 08:33:52;;;;;;;17.60;11.07;;;19.00;99.90;;;;;;5052803;28;20217;-85
2021/09/05 08:36:21;;;;;;;14.35;9.63;;;19.20;99.90;;;;;;5053255;28;20198;-87
2021/09/05 08:38:47;;;;;;;16.90;10.93;;;19.40;99.90;;;;;;5052135;28;20202;-84
2021/09/05 08:41:15;;;;;;;14.25;9.88;;;19.60;99.90;;;;;;5053198;28;20209;-87
2021/09/05 08:43:41;;;;;;;15.63;9.93;;;19.80;99.90;;;;;;5052214;28;20238;-88
2021/09/05 08:46:09;;;;;;;17.08;10.63;;;19.90;99.90;;;;;;5052326;28;20236;-88
2021/09/05 08:48:36;;;;;;;14.60;9.95;;;20.00;99.90;;;;;;5051889;28;20210;-86
2021/09/05 08:51:03;;;;;;;15.88;9.38;;;20.20;99.90;;;;;;5053514;28;20571;-86
2021/09/05 08:53:32;;;;;;;13.00;8.77;;;20.50;99.90;;;;;;5052735;28;20214;-87
2021/09/05 08:55:59;;;;;;;10.55;7.97;;;20.70;99.90;;;;;;5051840;28;20206;-88
2021/09/05 08:58:26;;;;;;;14.90;9.07;;;20.90;99.90;;;;;;5047793;28;20590;-86
2021/09/05 09:00:52;;;;;;;13.18;7.57;;;21.00;99.90;;;;;;5029859;28;20210;-87
2021/09/05 09:03:21;;;;;;;13.18;8.13;;;21.10;99.90;;;;;;5033777;28;20202;-86
2021/09/05 09:05:53;;;;;;;10.20;7.35;;;21.10;99.90;;;;;;5051132;28;20260;-86
2021/09/05 09:08:21;;;;;;;11.60;7.65;;;21.20;99.90;;;;;;5052679;28;20297;-86
2021/09/05 09:10:51;;;;;;;12.38;7.45;;;21.40;99.90;;;;;;5052615;28;20233;-87
2021/09/05 09:13:26;;;;;;;12.25;8.50;;;21.60;99.90;;;;;;5052536;28;20222;-83
2021/09/05 09:15:53;;;;;;;10.93;7.40;;;21.60;99.90;;;;;;5052825;28;20200;-88
2021/09/05 09:18:26;;;;;;;13.07;7.93;;;21.70;99.90;;;;;;5035957;28;20206;-87
2021/09/05 09:20:54;;;;;;;10.98;7.32;;;21.70;99.90;;;;;;5033030;28;20211;-91
2021/09/05 09:23:22;;;;;;;12.35;7.28;;;21.80;99.90;;;;;;5032914;28;20202;-89
2021/09/05 09:25:57;;;;;;;12.15;7.32;;;21.80;99.90;;;;;;5023900;28;20226;-91
2021/09/05 09:28:30;;;;;;;14.73;8.07;;;22.00;99.90;;;;;;5045376;28;20589;-87
2021/09/05 09:30:58;;;;;;;10.95;7.22;;;22.00;99.90;;;;;;5051185;28;20202;-83
2021/09/05 09:33:27;;;;;;;10.95;7.43;;;21.90;99.90;;;;;;5051442;28;20217;-89
2021/09/05 09:35:55;;;;;;;14.35;7.03;;;21.90;99.90;;;;;;5052029;28;20206;-87
2021/09/05 09:38:23;;;;;;;10.35;7.15;;;22.00;99.90;;;;;;5051931;28;20217;-88
2021/09/05 09:40:51;;;;;;;7.82;6.40;;;21.90;99.90;;;;;;5050439;28;20648;-88
2021/09/05 09:43:22;;;;;;;11.00;6.57;;;22.10;99.90;;;;;;5053293;28;20191;-88
2021/09/05 09:45:51;;;;;;;10.15;6.75;;;22.20;99.90;;;;;;5051991;28;20240;-87
2021/09/05 09:48:25;;;;;;;10.75;6.50;;;22.30;99.90;;;;;;5032787;28;20595;-89
2021/09/05 09:51:00;;;;;;;8.23;6.40;;;22.40;99.90;;;;;;5040265;28;20214;-86
2021/09/05 09:53:28;;;;;;;8.75;5.72;;;22.50;99.90;;;;;;5043369;28;20305;-88
2021/09/05 09:55:56;;;;;;;6.20;5.55;;;22.50;99.90;;;;;;5056856;28;20212;-88
2021/09/05 09:58:25;;;;;;;7.90;5.97;;;22.70;99.90;;;;;;5053576;28;20205;-85
2021/09/05 10:00:54;;;;;;;6.63;5.47;;;22.70;99.90;;;;;;5046805;28;20214;-87
2021/09/05 10:03:23;;;;;;;10.38;6.93;;;22.90;99.90;;;;;;5052966;28;20202;-86
2021/09/05 10:05:53;;;;;;;9.40;6.70;;;23.00;99.90;;;;;;5048257;28;20219;-86
2021/09/05 10:08:20;;;;;;;9.85;6.07;;;23.00;99.90;;;;;;5050000;28;20217;-86
2021/09/05 10:10:48;;;;;;;9.50;5.60;;;23.00;99.90;;;;;;5042486;28;20206;-85
2021/09/05 10:13:15;;;;;;;10.35;6.93;;;23.10;99.90;;;;;;5050790;28;20669;-84
2021/09/05 10:15:43;;;;;;;11.15;6.45;;;23.00;99.90;;;;;;5049851;28;20213;-84
2021/09/05 10:18:12;;;;;;;9.10;6.35;;;23.10;99.90;;;;;;5050838;28;20527;-85
2021/09/05 10:20:40;;;;;;;8.05;6.50;;;23.30;99.90;;;;;;5040611;28;20528;-84
2021/09/05 10:23:08;;;;;;;7.55;5.82;;;23.50;99.90;;;;;;5045176;28;20217;-85
2021/09/05 10:25:37;;;;;;;9.70;6.25;;;23.70;99.90;;;;;;5049831;28;20218;-81
2021/09/05 10:28:05;;;;;;;8.55;6.38;;;23.80;99.90;;;;;;5039968;28;20206;-85
2021/09/05 10:30:36;;;;;;;9.50;6.60;;;23.90;99.90;;;;;;5037710;28;20817;-84
2021/09/05 10:33:04;;;;;;;7.70;6.57;;;24.10;99.90;;;;;;5041311;28;20213;-89
2021/09/05 10:35:46;;;;;;;8.38;5.82;;;24.10;99.90;;;;;;5044035;28;20201;-86
2021/09/05 10:38:25;;;;;;;8.80;5.90;;;24.10;99.90;;;;;;5036208;28;20218;-88
2021/09/05 10:40:55;;;;;;;7.40;5.60;;;24.10;99.90;;;;;;5044454;28;20206;-87
2021/09/05 10:43:23;;;;;;;8.18;5.32;;;24.00;99.90;;;;;;5048990;22;20234;-86
2021/09/05 10:45:51;;;;;;;8.90;6.03;;;23.90;99.90;;;;;;5040325;28;20226;-83
2021/09/05 10:48:46;;;;;;;10.13;6.50;;;24.20;99.90;;;;;;5050182;28;20205;-87
2021/09/05 10:51:15;;;;;;;9.00;6.22;;;24.10;99.90;;;;;;5044613;28;20188;-84
2021/09/05 10:53:51;;;;;;;7.68;6.30;;;24.30;99.90;;;;;;5057455;22;20229;-87
2021/09/05 10:56:19;;;;;;;6.63;5.45;;;24.40;99.90;;;;;;5035486;28;20202;-88
2021/09/05 10:58:53;;;;;;;7.97;5.18;;;24.60;99.90;;;;;;5033235;28;20514;-91
2021/09/05 11:01:21;;;;;;;7.60;6.03;;;24.60;99.90;;;;;;5050635;28;20205;-87
2021/09/05 11:04:18;;;;;;;9.70;5.55;;;24.70;99.90;;;;;;5048666;28;20209;-85
2021/09/05 11:06:46;;;;;;;8.15;6.15;;;24.30;99.90;;;;;;5050069;28;20977;-87
2021/09/05 11:09:42;;;;;;;7.93;5.85;;;24.30;99.90;;;;;;5050617;28;20190;-86
2021/09/05 11:12:11;;;;;;;8.32;5.85;;;24.40;99.90;;;;;;5050536;28;20209;-89
2021/09/05 11:14:56;;;;;;;8.38;6.03;;;24.40;99.90;;;;;;5050169;28;20197;-86
2021/09/05 11:17:25;;;;;;;8.38;6.60;;;24.40;99.90;;;;;;5050382;28;20198;-86
2021/09/05 11:19:55;;;;;;;8.23;5.55;;;24.30;99.90;;;;;;5050233;28;20202;-85
2021/09/05 11:22:25;;;;;;;7.47;5.65;;;24.50;99.90;;;;;;5050191;28;20212;-86
2021/09/05 11:25:14;;;;;;;10.07;6.13;;;24.50;99.90;;;;;;5049859;28;20213;-88
2021/09/05 11:27:47;;;;;;;9.57;5.20;;;24.30;99.90;;;;;;5045368;28;20213;-85
2021/09/05 11:30:14;;;;;;;9.25;5.60;;;24.50;99.90;;;;;;5026280;28;20622;-89
2021/09/05 11:32:41;;;;;;;7.40;5.70;;;24.80;99.90;;;;;;5046396;28;20206;-89
2021/09/05 11:35:11;;;;;;;9.30;5.68;;;24.70;99.90;;;;;;5051195;28;20209;-86
2021/09/05 11:37:41;;;;;;;7.90;5.60;;;24.70;99.90;;;;;;5050470;28;20194;-89
2021/09/05 11:40:10;;;;;;;8.77;6.38;;;24.80;99.90;;;;;;5050915;28;20213;-87
2021/09/05 11:42:38;;;;;;;9.50;5.93;;;24.70;99.90;;;;;;5050329;28;20210;-88
2021/09/05 11:45:08;;;;;;;7.45;6.45;;;24.60;99.90;;;;;;5050209;28;20209;-89
2021/09/05 11:47:35;;;;;;;8.75;5.95;;;24.60;99.90;;;;;;5050632;28;20264;-90
2021/09/05 11:50:04;;;;;;;8.88;6.30;;;24.50;99.90;;;;;;5038777;28;20202;-90
2021/09/05 11:52:35;;;;;;;12.30;6.50;;;24.50;99.90;;;;;;5043519;28;20226;-87
2021/09/05 11:55:05;;;;;;;8.75;7.05;;;24.40;99.90;;;;;;5029933;28;20734;-89
2021/09/05 11:57:33;;;;;;;7.90;5.47;;;24.60;99.90;;;;;;5030497;28;20202;-87
2021/09/05 12:00:02;;;;;;;6.85;5.28;;;24.70;99.90;;;;;;5028936;28;20215;-85
2021/09/05 12:02:30;;;;;;;9.35;6.50;;;24.70;99.90;;;;;;5030333;28;20260;-86
2021/09/05 12:04:58;;;;;;;8.18;5.43;;;24.60;99.90;;;;;;5032238;28;20533;-88
2021/09/05 12:07:27;;;;;;;9.45;5.97;;;24.80;99.90;;;;;;5033956;28;20281;-88
2021/09/05 12:10:07;;;;;;;9.68;6.47;;;24.80;99.90;;;;;;5033254;28;20195;-88
2021/09/05 12:12:36;;;;;;;7.10;5.63;;;24.50;99.90;;;;;;5017816;28;20211;-87
2021/09/05 12:15:18;;;;;;;7.72;5.97;;;24.50;99.90;;;;;;5016912;28;20195;-87
2021/09/05 12:17:48;;;;;;;6.03;5.43;;;24.40;99.90;;;;;;5033573;28;20237;-90
2021/09/05 12:20:15;;;;;;;8.65;5.70;;;24.50;99.90;;;;;;5033136;28;20201;-88
2021/09/05 12:22:45;;;;;;;7.80;6.22;;;24.60;99.90;;;;;;5033944;28;20233;-87
2021/09/05 12:25:16;;;;;;;7.90;6.18;;;24.50;99.90;;;;;;5034001;28;20206;-90
2021/09/05 12:27:58;;;;;;;11.55;6.38;;;24.70;99.90;;;;;;5033764;28;20219;-88
2021/09/05 12:30:27;;;;;;;9.63;6.40;;;24.70;99.90;;;;;;5033197;28;20214;-88
2021/09/05 12:33:11;;;;;;;8.95;5.55;;;24.60;99.90;;;;;;5033376;28;20206;-87
2021/09/05 12:35:39;;;;;;;8.70;5.78;;;24.70;99.90;;;;;;5024241;28;20211;-88
2021/09/05 12:38:08;;;;;;;8.00;5.50;;;24.70;99.90;;;;;;5014430;28;20219;-90
2021/09/05 12:40:38;;;;;;;8.23;5.57;;;24.90;99.90;;;;;;5031780;28;20234;-86